Hovedside
METAR-TAF:

METAR-TAF

Lufthavner :

Asyut, Egypt

breddegrad: 27-03N, lengdegrad: 031-01E, høyde over havet: 226 m

Gjeldene værobservasjon

Denne rapporten ble laget for 59 minutter siden, klokken 20:00 UTC
Vind 5 kt fra Nord-nordvest
Temperatur 19°C
Luftfuktighet 46%
Trykk 1020 hPa
Sikt 10 km eller mer
ingen skyer under 1500 m og ingen bygeskyer

METAR: HEAT 282000Z 34005KT CAVOK 19/07 Q1020 NOSIG

Tid: 22:59 (20:59 UTC)

Varsel

Denne rapporten ble laget for 3 timer og 59 minutter siden, klokken 17:00 UTC
Varsel gyldig fra 28. klokken 18 UTC til 29. klokken 24 UTC
Vind 10 kt fra Nord
Sikt 10 km eller mer
ingen skyer under 1500 m og ingen bygeskyer

TAF: HEAT 281700Z 2818/2924 35010KT CAVOK

Værobservasjoner og værvarsel for over 4000 flyplasser (METAR- og TAF-rapporter).

Tilgjengelige stasjoner er representert av de røde og gule prikkene på kartet.

Hold musepekeren over prikken for å se navnet på stasjonen.

Klikk så for å se værobservasjoner og -varsler.

For å forandre kartet kan du klikke på den grønne knappen med svart kryss for å zoome inn, på den grønne knappen med strek for å zoome ut, eller på de grønne pilene for å se tilstøtende kart.


METAR-TAF: